createdAt,value
2023-05-07T00:00:30.856Z,2.83
2023-05-07T00:02:59.251Z,2.50
2023-05-07T00:05:29.292Z,2.88
2023-05-07T00:07:59.525Z,2.90
2023-05-07T00:10:28.593Z,2.55
2023-05-07T00:12:56.998Z,2.60
2023-05-07T00:15:25.407Z,2.65
2023-05-07T00:17:53.894Z,3.47
2023-05-07T00:20:22.335Z,3.05
2023-05-07T00:22:52.083Z,3.00
2023-05-07T00:25:21.497Z,2.33
2023-05-07T00:27:49.938Z,3.35
2023-05-07T00:30:18.573Z,4.88
2023-05-07T00:32:47.094Z,4.72
2023-05-07T00:35:15.479Z,4.65
2023-05-07T00:37:43.893Z,4.85
2023-05-07T00:40:14.208Z,5.13
2023-05-07T00:42:42.708Z,6.07
2023-05-07T00:45:11.945Z,5.15
2023-05-07T00:47:40.976Z,4.10
2023-05-07T00:50:13.797Z,4.10
2023-05-07T00:52:43.365Z,4.25
2023-05-07T00:55:15.603Z,3.67
2023-05-07T00:57:44.581Z,3.90
2023-05-07T01:00:14.932Z,3.50
2023-05-07T01:02:44.443Z,4.03
2023-05-07T01:05:17.114Z,3.40
2023-05-07T01:07:46.613Z,3.20
2023-05-07T01:10:17.689Z,2.72
2023-05-07T01:12:48.144Z,2.90
2023-05-07T01:15:17.383Z,2.55
2023-05-07T01:17:46.083Z,2.20
2023-05-07T01:20:15.323Z,2.20
2023-05-07T01:22:45.880Z,2.60
2023-05-07T01:25:14.671Z,2.15
2023-05-07T01:27:43.257Z,2.00
2023-05-07T01:30:12.893Z,1.85
2023-05-07T01:32:46.916Z,1.98
2023-05-07T01:35:21.282Z,2.40
2023-05-07T01:37:51.553Z,18.23
2023-05-07T01:40:20.614Z,4.35
2023-05-07T01:42:49.587Z,2.63
2023-05-07T01:45:17.935Z,2.10
2023-05-07T01:47:46.948Z,2.38
2023-05-07T01:50:17.983Z,1.58
2023-05-07T01:52:46.448Z,1.58
2023-05-07T01:55:16.230Z,1.60
2023-05-07T01:57:44.982Z,1.70
2023-05-07T02:00:14.593Z,1.63
2023-05-07T02:02:43.293Z,1.77
2023-05-07T02:05:11.878Z,1.70
2023-05-07T02:07:40.268Z,1.88
2023-05-07T02:10:10.276Z,2.58
2023-05-07T02:12:40.161Z,1.70
2023-05-07T02:15:10.071Z,1.92
2023-05-07T02:17:41.339Z,2.65
2023-05-07T02:20:14.439Z,2.53
2023-05-07T02:22:42.913Z,2.92
2023-05-07T02:25:11.473Z,2.28
2023-05-07T02:27:41.310Z,2.63
2023-05-07T02:30:11.331Z,2.63
2023-05-07T02:32:39.936Z,2.42
2023-05-07T02:35:09.352Z,3.00
2023-05-07T02:37:37.760Z,2.58
2023-05-07T02:40:08.158Z,3.17
2023-05-07T02:42:36.591Z,2.30
2023-05-07T02:45:07.979Z,3.33
2023-05-07T02:47:36.392Z,2.90
2023-05-07T02:50:05.900Z,3.55
2023-05-07T02:52:34.290Z,2.80
2023-05-07T02:55:03.622Z,2.75
2023-05-07T02:57:32.276Z,2.72
2023-05-07T03:00:01.137Z,2.88
2023-05-07T03:02:30.927Z,3.55
2023-05-07T03:04:59.308Z,3.08
2023-05-07T03:07:27.611Z,3.38
2023-05-07T03:09:55.956Z,3.15
2023-05-07T03:12:24.371Z,3.47
2023-05-07T03:14:52.749Z,3.22
2023-05-07T03:17:21.206Z,2.72
2023-05-07T03:19:51.273Z,3.00
2023-05-07T03:22:19.689Z,3.53
2023-05-07T03:24:48.013Z,3.25
2023-05-07T03:27:16.401Z,3.55
2023-05-07T03:29:44.700Z,3.55
2023-05-07T03:32:13.169Z,4.35
2023-05-07T03:34:41.699Z,4.57
2023-05-07T03:37:11.556Z,4.15
2023-05-07T03:39:39.882Z,3.65
2023-05-07T03:42:08.360Z,4.32
2023-05-07T03:44:37.256Z,5.10
2023-05-07T03:47:06.302Z,4.93
2023-05-07T03:49:34.654Z,4.70
2023-05-07T03:52:03.063Z,5.75
2023-05-07T03:54:33.332Z,6.60
2023-05-07T03:57:01.744Z,5.95
2023-05-07T03:59:30.063Z,7.95
2023-05-07T04:01:58.429Z,7.97
2023-05-07T04:04:27.050Z,7.82
2023-05-07T04:06:55.473Z,7.05
2023-05-07T04:09:23.911Z,9.05
2023-05-07T04:11:53.752Z,8.40
2023-05-07T04:14:22.182Z,9.13
2023-05-07T04:16:50.617Z,10.05
2023-05-07T04:19:19.086Z,9.77
2023-05-07T04:21:47.453Z,11.30
2023-05-07T04:24:16.036Z,10.40
2023-05-07T04:26:44.523Z,10.35
2023-05-07T04:29:14.269Z,11.10
2023-05-07T04:31:45.289Z,10.05
2023-05-07T04:34:13.934Z,10.70
2023-05-07T04:36:42.267Z,10.20
2023-05-07T04:39:11.756Z,10.35
2023-05-07T04:41:40.119Z,10.55
2023-05-07T04:44:08.521Z,10.48
2023-05-07T04:46:38.302Z,9.82
2023-05-07T04:49:07.803Z,10.10
2023-05-07T04:51:36.166Z,11.40
2023-05-07T04:54:04.619Z,11.15
2023-05-07T04:56:32.945Z,11.43
2023-05-07T04:59:01.415Z,10.73
2023-05-07T05:01:29.890Z,10.68
2023-05-07T05:04:01.245Z,12.13
2023-05-07T05:06:29.842Z,11.45
2023-05-07T05:08:58.134Z,11.35
2023-05-07T05:11:26.802Z,11.55
2023-05-07T05:13:55.192Z,10.52
2023-05-07T05:16:23.646Z,12.02
2023-05-07T05:18:53.082Z,10.70
2023-05-07T05:21:23.293Z,11.50
2023-05-07T05:23:51.652Z,11.10
2023-05-07T05:26:20.050Z,13.32
2023-05-07T05:28:48.471Z,11.75
2023-05-07T05:31:16.881Z,12.10
2023-05-07T05:33:45.870Z,13.95
2023-05-07T05:36:14.432Z,14.18
2023-05-07T05:38:44.963Z,13.68
2023-05-07T05:41:13.339Z,13.35
2023-05-07T05:43:41.701Z,14.60
2023-05-07T05:46:12.890Z,11.27
2023-05-07T05:48:41.640Z,12.73
2023-05-07T05:51:10.040Z,13.60
2023-05-07T05:53:38.440Z,13.38
2023-05-07T05:56:09.209Z,14.63
2023-05-07T05:58:37.669Z,14.35
2023-05-07T06:01:06.400Z,12.40
2023-05-07T06:03:34.837Z,13.48
2023-05-07T06:06:03.295Z,13.50
2023-05-07T06:08:32.714Z,12.13
2023-05-07T06:11:01.806Z,11.95
2023-05-07T06:13:31.621Z,13.32
2023-05-07T06:16:00.127Z,13.35
2023-05-07T06:18:28.524Z,12.80
2023-05-07T06:20:56.812Z,12.70
2023-05-07T06:23:25.164Z,12.48
2023-05-07T06:25:53.917Z,12.05
2023-05-07T06:28:22.232Z,11.27
2023-05-07T06:30:52.057Z,12.52
2023-05-07T06:33:21.051Z,13.23
2023-05-07T06:35:49.533Z,12.35
2023-05-07T06:38:18.489Z,12.18
2023-05-07T06:40:50.033Z,13.52
2023-05-07T06:43:18.458Z,11.23
2023-05-07T06:45:46.856Z,13.10
2023-05-07T06:48:16.612Z,10.88
2023-05-07T06:50:45.024Z,11.82
2023-05-07T06:53:13.562Z,11.95
2023-05-07T06:55:42.681Z,12.05
2023-05-07T06:58:11.114Z,12.98
2023-05-07T07:00:39.613Z,12.82
2023-05-07T07:03:08.005Z,12.18
2023-05-07T07:05:38.214Z,12.77
2023-05-07T07:08:07.272Z,12.65
2023-05-07T07:10:35.784Z,11.02
2023-05-07T07:13:04.189Z,12.20
2023-05-07T07:15:32.728Z,11.80
2023-05-07T07:18:01.258Z,12.48
2023-05-07T07:20:29.863Z,13.43
2023-05-07T07:23:00.679Z,12.55
2023-05-07T07:25:29.128Z,13.15
2023-05-07T07:27:57.452Z,12.20
2023-05-07T07:30:25.979Z,11.95
2023-05-07T07:32:54.799Z,12.52
2023-05-07T07:35:23.227Z,11.48
2023-05-07T07:37:52.070Z,12.07
2023-05-07T07:40:22.555Z,11.75
2023-05-07T07:42:50.919Z,11.38
2023-05-07T07:45:19.374Z,11.13
2023-05-07T07:47:47.821Z,11.23
2023-05-07T07:50:25.210Z,11.98
2023-05-07T07:53:04.563Z,10.95
2023-05-07T07:55:34.249Z,11.32
2023-05-07T07:58:02.648Z,10.98
2023-05-07T08:00:31.065Z,11.60
2023-05-07T08:02:59.626Z,10.80
2023-05-07T08:05:28.281Z,11.27
2023-05-07T08:07:56.613Z,9.77
2023-05-07T08:10:24.939Z,10.80
2023-05-07T08:12:54.785Z,11.30
2023-05-07T08:15:23.283Z,10.60
2023-05-07T08:17:51.832Z,10.15
2023-05-07T08:20:20.678Z,11.02
2023-05-07T08:22:49.047Z,10.65
2023-05-07T08:25:17.450Z,12.57
2023-05-07T08:27:46.058Z,10.88
2023-05-07T08:30:17.214Z,9.95
2023-05-07T08:32:45.744Z,9.73
2023-05-07T08:35:14.226Z,9.93
2023-05-07T08:37:42.676Z,10.55
2023-05-07T08:40:14.387Z,9.85
2023-05-07T08:42:44.164Z,9.90
2023-05-07T08:45:13.337Z,8.75
2023-05-07T08:47:48.849Z,10.35
2023-05-07T08:50:17.641Z,10.98
2023-05-07T08:52:46.098Z,9.27
2023-05-07T08:55:16.241Z,9.82
2023-05-07T08:57:44.801Z,9.82
2023-05-07T09:00:15.141Z,9.90
2023-05-07T09:02:45.000Z,9.65
2023-05-07T09:05:13.817Z,9.43
2023-05-07T09:07:42.475Z,9.20
2023-05-07T09:10:11.811Z,7.20
2023-05-07T09:12:41.036Z,8.55
2023-05-07T09:15:11.412Z,8.55
2023-05-07T09:17:40.064Z,8.63
2023-05-07T09:20:11.428Z,9.73
2023-05-07T09:22:40.696Z,8.95
2023-05-07T09:25:11.376Z,9.25
2023-05-07T09:27:40.188Z,10.07
2023-05-07T09:30:10.116Z,9.82
2023-05-07T09:32:40.162Z,11.10
2023-05-07T09:35:18.174Z,10.18
2023-05-07T09:37:47.416Z,10.40
2023-05-07T09:40:24.355Z,10.23
2023-05-07T09:42:53.155Z,9.20
2023-05-07T09:45:25.802Z,9.80
2023-05-07T09:47:58.702Z,10.85
2023-05-07T09:50:31.949Z,8.57
2023-05-07T09:53:01.728Z,9.23
2023-05-07T09:55:30.543Z,8.65
2023-05-07T09:58:00.959Z,8.00
2023-05-07T10:00:31.024Z,9.07
2023-05-07T10:03:00.554Z,9.32
2023-05-07T10:05:30.917Z,7.88
2023-05-07T10:08:00.910Z,8.98
2023-05-07T10:10:31.293Z,7.97
2023-05-07T10:13:00.384Z,7.00
2023-05-07T10:15:30.680Z,7.38
2023-05-07T10:17:59.486Z,7.22
2023-05-07T10:20:30.651Z,8.77
2023-05-07T10:23:00.736Z,9.18
2023-05-07T10:25:33.468Z,8.00
2023-05-07T10:28:06.789Z,9.38
2023-05-07T10:30:50.566Z,8.07
2023-05-07T10:33:25.772Z,8.60
2023-05-07T10:36:01.167Z,9.35
2023-05-07T10:38:30.466Z,8.95
2023-05-07T10:40:59.157Z,8.52
2023-05-07T10:43:27.565Z,8.82
2023-05-07T10:46:13.597Z,8.60
2023-05-07T10:49:13.419Z,8.55
2023-05-07T10:51:43.202Z,8.65
2023-05-07T10:54:25.797Z,8.27
2023-05-07T10:56:54.305Z,8.30
2023-05-07T10:59:43.834Z,8.60
2023-05-07T11:02:15.284Z,8.63
2023-05-07T11:04:44.047Z,8.13
2023-05-07T11:07:28.201Z,7.93
2023-05-07T11:10:08.966Z,10.15
2023-05-07T11:12:57.124Z,7.95
2023-05-07T11:15:44.419Z,9.55
2023-05-07T11:18:15.322Z,8.75
2023-05-07T11:20:59.691Z,8.57
2023-05-07T11:24:12.651Z,8.13
2023-05-07T11:26:49.986Z,7.45
2023-05-07T11:29:22.689Z,7.82
2023-05-07T11:31:53.158Z,7.72
2023-05-07T11:34:26.109Z,7.82
2023-05-07T11:36:56.110Z,7.13
2023-05-07T11:39:35.607Z,7.47
2023-05-07T11:42:03.948Z,7.68
2023-05-07T11:44:47.324Z,8.20
2023-05-07T11:47:21.027Z,7.28
2023-05-07T11:49:53.254Z,6.97
2023-05-07T11:52:24.570Z,7.20
2023-05-07T11:54:55.832Z,7.60
2023-05-07T11:57:24.867Z,7.60
2023-05-07T11:59:55.985Z,6.53
2023-05-07T12:02:26.055Z,7.45
2023-05-07T12:04:54.832Z,6.63
2023-05-07T12:07:23.680Z,7.40
2023-05-07T12:09:54.117Z,7.30
2023-05-07T12:12:22.474Z,6.88
2023-05-07T12:14:51.554Z,6.60
2023-05-07T12:17:19.978Z,7.15
2023-05-07T12:19:49.226Z,7.10
2023-05-07T12:22:17.691Z,7.75
2023-05-07T12:24:47.801Z,7.85
2023-05-07T12:27:18.670Z,6.95
2023-05-07T12:29:48.433Z,6.88
2023-05-07T12:32:17.762Z,7.10
2023-05-07T12:34:46.294Z,6.63
2023-05-07T12:37:15.675Z,7.40
2023-05-07T12:39:49.271Z,7.35
2023-05-07T12:42:24.583Z,6.10
2023-05-07T12:44:53.663Z,7.13
2023-05-07T12:47:23.902Z,6.32
2023-05-07T12:49:52.589Z,6.72
2023-05-07T12:52:21.136Z,6.40
2023-05-07T12:54:50.679Z,6.25
2023-05-07T12:57:22.475Z,6.65
2023-05-07T12:59:50.858Z,6.03
2023-05-07T13:02:19.273Z,5.80
2023-05-07T13:04:48.851Z,5.65
2023-05-07T13:07:17.224Z,5.53
2023-05-07T13:09:45.516Z,4.85
2023-05-07T13:12:13.875Z,5.90
2023-05-07T13:14:43.689Z,5.72
2023-05-07T13:17:12.045Z,5.82
2023-05-07T13:19:40.467Z,5.93
2023-05-07T13:22:08.820Z,5.72
2023-05-07T13:24:37.157Z,6.07
2023-05-07T13:27:05.650Z,4.93
2023-05-07T13:29:33.994Z,5.57
2023-05-07T13:32:03.775Z,4.72
2023-05-07T13:34:32.248Z,5.38
2023-05-07T13:37:00.653Z,5.10
2023-05-07T13:39:29.040Z,5.25
2023-05-07T13:41:57.399Z,5.20
2023-05-07T13:44:26.060Z,5.38
2023-05-07T13:46:54.532Z,5.40
2023-05-07T13:49:25.063Z,5.57
2023-05-07T13:51:53.373Z,5.30
2023-05-07T13:54:21.871Z,4.70
2023-05-07T13:56:50.196Z,4.43
2023-05-07T13:59:18.546Z,4.90
2023-05-07T14:01:46.860Z,5.03
2023-05-07T14:04:15.172Z,5.28
2023-05-07T14:06:45.165Z,4.88
2023-05-07T14:09:14.411Z,5.65
2023-05-07T14:11:43.038Z,4.85
2023-05-07T14:14:12.679Z,4.78
2023-05-07T14:16:41.156Z,4.72
2023-05-07T14:19:09.487Z,4.18
2023-05-07T14:21:37.779Z,5.43
2023-05-07T14:24:09.502Z,4.18
2023-05-07T14:26:37.955Z,4.43
2023-05-07T14:29:06.296Z,4.40
2023-05-07T14:31:35.038Z,4.05
2023-05-07T14:34:03.463Z,4.53
2023-05-07T14:36:32.805Z,3.83
2023-05-07T14:39:01.338Z,4.93
2023-05-07T14:41:31.036Z,3.85
2023-05-07T14:44:00.051Z,3.63
2023-05-07T14:46:28.737Z,4.05
2023-05-07T14:48:57.269Z,3.92
2023-05-07T14:51:26.913Z,3.67
2023-05-07T14:53:55.626Z,3.83
2023-05-07T14:56:24.034Z,3.60
2023-05-07T14:58:53.712Z,3.75
2023-05-07T15:01:23.462Z,4.07
2023-05-07T15:03:51.845Z,3.72
2023-05-07T15:06:20.151Z,4.35
2023-05-07T15:08:49.512Z,3.38
2023-05-07T15:11:17.811Z,3.80
2023-05-07T15:13:46.186Z,3.05
2023-05-07T15:16:16.138Z,3.65
2023-05-07T15:18:45.580Z,2.80
2023-05-07T15:21:14.262Z,3.30
2023-05-07T15:23:43.314Z,3.60
2023-05-07T15:26:11.718Z,3.00
2023-05-07T15:28:40.698Z,2.95
2023-05-07T15:31:10.149Z,3.30
2023-05-07T15:33:39.837Z,3.53
2023-05-07T15:36:08.648Z,3.03
2023-05-07T15:38:36.938Z,3.97
2023-05-07T15:41:05.600Z,3.53
2023-05-07T15:43:34.028Z,3.17
2023-05-07T15:46:02.497Z,3.22
2023-05-07T15:48:31.636Z,3.65
2023-05-07T15:51:01.400Z,3.10
2023-05-07T15:53:29.737Z,3.78
2023-05-07T15:55:58.058Z,2.97
2023-05-07T15:58:26.478Z,3.10
2023-05-07T16:00:54.888Z,3.25
2023-05-07T16:03:24.407Z,3.03
2023-05-07T16:05:52.830Z,3.35
2023-05-07T16:08:22.557Z,3.10
2023-05-07T16:10:51.169Z,3.28
2023-05-07T16:13:20.434Z,3.33
2023-05-07T16:15:49.193Z,4.05
2023-05-07T16:18:17.640Z,3.92
2023-05-07T16:20:46.778Z,3.35
2023-05-07T16:23:15.103Z,3.53
2023-05-07T16:25:44.799Z,3.90
2023-05-07T16:28:13.248Z,3.72
2023-05-07T16:30:41.646Z,3.50
2023-05-07T16:33:10.446Z,3.63
2023-05-07T16:35:38.978Z,4.47
2023-05-07T16:38:10.502Z,3.88
2023-05-07T16:40:40.328Z,3.92
2023-05-07T16:43:10.104Z,4.30
2023-05-07T16:45:38.581Z,3.20
2023-05-07T16:48:08.569Z,4.07
2023-05-07T16:50:37.172Z,4.20
2023-05-07T16:53:07.992Z,4.00
2023-05-07T16:55:39.014Z,3.95
2023-05-07T16:58:09.792Z,4.13
2023-05-07T17:00:49.983Z,4.95
2023-05-07T17:03:19.692Z,4.13
2023-05-07T17:05:48.404Z,4.43
2023-05-07T17:08:16.839Z,4.45
2023-05-07T17:10:46.088Z,4.18
2023-05-07T17:13:15.912Z,4.10
2023-05-07T17:15:46.532Z,4.03
2023-05-07T17:18:15.104Z,4.78
2023-05-07T17:20:43.530Z,4.57
2023-05-07T17:23:11.881Z,4.15
2023-05-07T17:25:45.426Z,4.43
2023-05-07T17:28:15.649Z,4.07
2023-05-07T17:30:44.121Z,4.60
2023-05-07T17:33:20.795Z,4.07
2023-05-07T17:35:50.393Z,5.38
2023-05-07T17:38:19.225Z,4.93
2023-05-07T17:40:47.667Z,4.30
2023-05-07T17:43:17.392Z,3.90
2023-05-07T17:45:45.816Z,4.65
2023-05-07T17:48:14.204Z,4.00
2023-05-07T17:50:42.635Z,4.43
2023-05-07T17:53:11.454Z,4.88
2023-05-07T17:55:44.164Z,4.35
2023-05-07T17:58:13.815Z,3.58
2023-05-07T18:00:43.604Z,4.80
2023-05-07T18:03:12.253Z,4.53
2023-05-07T18:05:41.158Z,5.25
2023-05-07T18:08:09.889Z,4.20
2023-05-07T18:10:39.420Z,4.63
2023-05-07T18:13:07.976Z,5.03
2023-05-07T18:15:36.383Z,3.75
2023-05-07T18:18:07.411Z,4.22
2023-05-07T18:20:35.895Z,4.85
2023-05-07T18:23:04.850Z,4.55
2023-05-07T18:25:33.299Z,4.13
2023-05-07T18:28:01.847Z,3.60
2023-05-07T18:30:30.214Z,3.83
2023-05-07T18:32:59.249Z,4.75
2023-05-07T18:35:28.972Z,4.10
2023-05-07T18:37:57.709Z,3.60
2023-05-07T18:40:26.334Z,4.18
2023-05-07T18:42:55.966Z,4.07
2023-05-07T18:45:24.327Z,4.45
2023-05-07T18:47:52.753Z,4.10
2023-05-07T18:50:21.659Z,4.15
2023-05-07T18:52:52.402Z,4.22
2023-05-07T18:55:22.138Z,3.88
2023-05-07T18:57:50.547Z,4.55
2023-05-07T19:00:19.916Z,4.22
2023-05-07T19:02:48.656Z,4.53
2023-05-07T19:05:18.487Z,4.28
2023-05-07T19:07:47.825Z,4.35
2023-05-07T19:10:17.927Z,4.47
2023-05-07T19:12:46.741Z,4.28
2023-05-07T19:15:16.198Z,4.47
2023-05-07T19:17:45.023Z,4.63
2023-05-07T19:20:14.675Z,5.05
2023-05-07T19:22:44.011Z,6.13
2023-05-07T19:25:14.929Z,5.00
2023-05-07T19:27:45.041Z,5.88
2023-05-07T19:30:15.276Z,7.20
2023-05-07T19:32:44.307Z,6.63
2023-05-07T19:35:14.027Z,5.65
2023-05-07T19:37:44.629Z,6.30
2023-05-07T19:40:15.879Z,6.45
2023-05-07T19:42:46.778Z,5.45
2023-05-07T19:45:20.168Z,6.90
2023-05-07T19:47:49.838Z,7.03
2023-05-07T19:50:19.124Z,7.20
2023-05-07T19:52:47.883Z,6.18
2023-05-07T19:55:16.272Z,6.18
2023-05-07T19:57:50.118Z,7.28
2023-05-07T20:00:21.257Z,7.00
2023-05-07T20:02:51.358Z,7.30
2023-05-07T20:05:20.150Z,7.43
2023-05-07T20:07:49.107Z,7.78
2023-05-07T20:10:17.916Z,9.13
2023-05-07T20:12:47.778Z,8.82
2023-05-07T20:15:16.982Z,7.93
2023-05-07T20:17:45.923Z,8.00
2023-05-07T20:20:14.840Z,8.45
2023-05-07T20:22:43.421Z,8.93
2023-05-07T20:25:13.597Z,8.85
2023-05-07T20:27:42.170Z,9.88
2023-05-07T20:30:13.926Z,10.68
2023-05-07T20:32:43.480Z,9.63
2023-05-07T20:35:12.327Z,10.52
2023-05-07T20:37:40.849Z,9.98
2023-05-07T20:40:11.238Z,10.35
2023-05-07T20:42:39.921Z,9.93
2023-05-07T20:45:11.905Z,10.57
2023-05-07T20:47:40.334Z,11.02
2023-05-07T20:50:09.827Z,11.43
2023-05-07T20:52:38.292Z,10.30
2023-05-07T20:55:08.522Z,10.13
2023-05-07T20:57:37.389Z,9.30
2023-05-07T21:00:08.036Z,11.35
2023-05-07T21:02:38.118Z,11.23
2023-05-07T21:05:07.927Z,10.07
2023-05-07T21:07:36.473Z,10.63
2023-05-07T21:10:06.293Z,10.73
2023-05-07T21:12:34.696Z,11.73
2023-05-07T21:15:03.054Z,12.38
2023-05-07T21:17:33.119Z,10.88
2023-05-07T21:20:03.885Z,11.02
2023-05-07T21:22:32.323Z,11.93
2023-05-07T21:25:01.211Z,10.38
2023-05-07T21:27:30.104Z,10.13
2023-05-07T21:30:04.247Z,11.48
2023-05-07T21:32:32.910Z,10.45
2023-05-07T21:35:02.768Z,12.15
2023-05-07T21:37:31.180Z,11.57
2023-05-07T21:39:59.609Z,11.25
2023-05-07T21:42:29.032Z,12.00
2023-05-07T21:44:57.692Z,11.57
2023-05-07T21:47:26.189Z,11.45
2023-05-07T21:49:54.558Z,11.10
2023-05-07T21:52:25.999Z,11.10
2023-05-07T21:54:54.865Z,10.85
2023-05-07T21:57:23.228Z,9.50
2023-05-07T21:59:51.549Z,11.18
2023-05-07T22:02:19.971Z,9.73
2023-05-07T22:04:48.340Z,11.52
2023-05-07T22:07:16.679Z,12.45
2023-05-07T22:09:46.514Z,11.52
2023-05-07T22:12:14.870Z,12.23
2023-05-07T22:14:43.332Z,11.60
2023-05-07T22:17:11.738Z,13.32
2023-05-07T22:19:40.058Z,12.30
2023-05-07T22:22:08.409Z,11.13
2023-05-07T22:24:36.760Z,13.05
2023-05-07T22:27:06.572Z,11.52
2023-05-07T22:29:34.932Z,12.07
2023-05-07T22:32:03.644Z,11.45
2023-05-07T22:34:32.005Z,10.88
2023-05-07T22:37:00.274Z,9.40
2023-05-07T22:39:31.244Z,9.45
2023-05-07T22:41:59.539Z,10.07
2023-05-07T22:44:29.548Z,9.38
2023-05-07T22:46:58.030Z,9.27
2023-05-07T22:49:26.473Z,8.55
2023-05-07T22:51:54.769Z,10.05
2023-05-07T22:54:24.252Z,8.27
2023-05-07T22:56:54.028Z,8.68
2023-05-07T22:59:22.558Z,8.30
2023-05-07T23:01:52.441Z,7.78
2023-05-07T23:04:20.858Z,8.68
2023-05-07T23:06:49.204Z,9.20
2023-05-07T23:09:17.559Z,9.75
2023-05-07T23:11:46.027Z,8.73
2023-05-07T23:14:14.375Z,8.95
2023-05-07T23:16:42.794Z,9.20
2023-05-07T23:19:13.002Z,9.48
2023-05-07T23:21:41.565Z,7.47
2023-05-07T23:24:10.311Z,9.02
2023-05-07T23:26:38.890Z,8.27
2023-05-07T23:29:07.266Z,8.25
2023-05-07T23:31:36.322Z,9.40
2023-05-07T23:34:04.794Z,7.70
2023-05-07T23:36:34.925Z,8.35
2023-05-07T23:39:03.466Z,8.45
2023-05-07T23:41:32.035Z,8.20
2023-05-07T23:44:00.430Z,7.97
2023-05-07T23:46:28.812Z,8.02
2023-05-07T23:48:57.174Z,8.15
2023-05-07T23:51:25.574Z,8.05
2023-05-07T23:53:55.319Z,8.02
2023-05-07T23:56:23.925Z,8.50
2023-05-07T23:58:52.266Z,8.60
